Time;durP1;ratioP1;P1;durP2;ratioP2;P2;SDS_P1;SDS_P2;PMS_P1;PMS_P2;Temp;Humidity;BMP_temperature;BMP_pressure;BME280_temperature;BME280_humidity;BME280_pressure;Samples;Min_cycle;Max_cycle;Signal;HPM_P1;HPM_P2
2023/04/24 00:01:31;;;;;;;2.70;1.30;;;10.70;95.50;;;;;;5066456;28;20183;-59
2023/04/24 00:03:59;;;;;;;0.97;0.97;;;10.70;95.40;;;;;;5063086;28;20202;-60
2023/04/24 00:06:33;;;;;;;1.40;1.23;;;10.70;95.10;;;;;;5038156;28;20201;-59
2023/04/24 00:09:00;;;;;;;0.90;0.90;;;10.70;95.00;;;;;;5064537;28;20440;-59
2023/04/24 00:11:27;;;;;;;1.03;0.90;;;10.70;94.50;;;;;;5054207;28;20441;-59
2023/04/24 00:13:52;;;;;;;1.73;1.30;;;10.60;94.80;;;;;;5055585;28;20469;-60
2023/04/24 00:16:18;;;;;;;1.27;1.10;;;10.60;94.40;;;;;;5062109;28;21036;-59
2023/04/24 00:18:44;;;;;;;1.13;1.00;;;10.60;94.20;;;;;;5067349;28;20182;-60
2023/04/24 00:21:10;;;;;;;1.13;1.03;;;10.60;94.30;;;;;;5063739;28;20194;-59
2023/04/24 00:23:36;;;;;;;1.63;1.10;;;10.50;94.60;;;;;;5062283;28;20506;-59
2023/04/24 00:26:02;;;;;;;1.27;1.17;;;10.50;94.70;;;;;;5041630;28;20445;-59
2023/04/24 00:28:27;;;;;;;3.83;1.00;;;10.50;94.70;;;;;;5060692;28;20228;-58
2023/04/24 00:30:53;;;;;;;1.20;1.10;;;10.50;95.00;;;;;;5060322;28;20445;-60
2023/04/24 00:33:19;;;;;;;1.50;1.20;;;10.50;94.80;;;;;;5060930;28;20590;-59
2023/04/24 00:35:45;;;;;;;1.60;0.93;;;10.50;94.60;;;;;;5058055;28;20457;-61
2023/04/24 00:38:11;;;;;;;0.93;0.93;;;10.50;94.60;;;;;;5060051;28;20995;-60
2023/04/24 00:40:36;;;;;;;1.17;1.10;;;10.50;94.80;;;;;;5059789;28;20179;-60
2023/04/24 00:43:02;;;;;;;2.33;1.30;;;10.50;94.50;;;;;;5060783;28;20257;-60
2023/04/24 00:45:27;;;;;;;3.80;1.27;;;10.50;93.90;;;;;;5056462;28;20643;-60
2023/04/24 00:47:53;;;;;;;2.87;1.10;;;10.50;93.80;;;;;;5059471;28;20206;-60
2023/04/24 00:50:21;;;;;;;1.20;1.10;;;10.50;94.40;;;;;;5056928;28;20179;-60
2023/04/24 00:52:46;;;;;;;1.30;1.10;;;10.50;94.10;;;;;;5055008;28;20186;-61
2023/04/24 00:55:12;;;;;;;1.67;1.30;;;10.50;94.10;;;;;;5059170;28;20462;-60
2023/04/24 00:57:38;;;;;;;2.30;1.30;;;10.50;94.10;;;;;;5061956;28;20175;-60
2023/04/24 01:00:05;;;;;;;1.13;1.13;;;10.50;93.90;;;;;;5063000;28;20175;-60
2023/04/24 01:02:34;;;;;;;0.97;0.90;;;10.50;94.30;;;;;;5057811;28;20170;-60
2023/04/24 01:05:00;;;;;;;4.70;1.00;;;10.50;94.50;;;;;;5064450;28;20460;-60
2023/04/24 01:07:26;;;;;;;1.97;1.50;;;10.40;94.70;;;;;;5064667;28;20486;-60
2023/04/24 01:09:52;;;;;;;1.40;1.10;;;10.50;94.80;;;;;;5060979;28;20470;-61
2023/04/24 01:12:19;;;;;;;1.17;1.07;;;10.50;94.90;;;;;;5058816;28;20438;-60
2023/04/24 01:14:45;;;;;;;5.30;1.23;;;10.40;95.30;;;;;;5063216;28;20202;-60
2023/04/24 01:17:11;;;;;;;1.70;1.23;;;10.40;95.90;;;;;;5062135;28;20424;-60
2023/04/24 01:19:37;;;;;;;5.80;1.53;;;10.50;96.70;;;;;;5064032;28;20477;-60
2023/04/24 01:22:08;;;;;;;2.03;1.30;;;10.40;97.70;;;;;;5059637;28;20425;-60
2023/04/24 01:24:34;;;;;;;1.73;1.20;;;10.40;99.60;;;;;;5062579;28;20453;-60
2023/04/24 01:27:01;;;;;;;4.53;1.30;;;10.40;99.90;;;;;;5062576;28;20524;-60
2023/04/24 01:29:27;;;;;;;2.10;1.33;;;10.30;99.90;;;;;;5061149;28;20177;-60
2023/04/24 01:31:53;;;;;;;1.60;1.10;;;10.40;99.90;;;;;;5060323;28;20524;-61
2023/04/24 01:34:18;;;;;;;2.50;1.30;;;10.30;99.90;;;;;;5058930;28;22239;-60
2023/04/24 01:36:46;;;;;;;3.33;1.20;;;10.30;99.90;;;;;;5058495;28;20421;-60
2023/04/24 01:39:12;;;;;;;1.70;1.03;;;10.30;99.90;;;;;;5061628;28;20195;-60
2023/04/24 01:41:38;;;;;;;2.80;1.13;;;10.20;99.90;;;;;;5062820;28;20478;-60
2023/04/24 01:44:04;;;;;;;1.73;1.20;;;10.20;99.90;;;;;;5062816;28;20474;-60
2023/04/24 01:46:31;;;;;;;4.03;1.30;;;10.20;99.90;;;;;;5065089;28;20256;-60
2023/04/24 01:48:59;;;;;;;1.87;1.50;;;10.10;99.90;;;;;;5056489;28;20178;-61
2023/04/24 01:51:25;;;;;;;1.20;1.10;;;10.10;99.90;;;;;;5060544;28;21058;-60
2023/04/24 01:53:51;;;;;;;1.40;1.30;;;10.10;99.90;;;;;;5059790;28;20551;-60
2023/04/24 01:56:17;;;;;;;3.03;1.57;;;10.00;99.90;;;;;;5058804;28;20187;-60
2023/04/24 01:58:43;;;;;;;1.30;1.20;;;10.00;99.90;;;;;;5061955;28;20289;-60
2023/04/24 02:01:09;;;;;;;6.20;1.50;;;10.00;99.90;;;;;;5060775;28;20204;-60
2023/04/24 02:03:34;;;;;;;2.20;1.63;;;9.90;99.90;;;;;;5060322;28;20424;-60
2023/04/24 02:06:00;;;;;;;3.47;1.67;;;9.90;99.90;;;;;;5053317;28;21969;-60
2023/04/24 02:08:26;;;;;;;2.90;1.30;;;9.90;99.90;;;;;;5061108;28;20192;-60
2023/04/24 02:10:51;;;;;;;9.03;3.10;;;9.80;99.90;;;;;;5053108;28;20261;-61
2023/04/24 02:13:17;;;;;;;6.57;2.70;;;9.80;99.90;;;;;;5064341;28;21054;-61
2023/04/24 02:15:42;;;;;;;4.60;1.50;;;9.80;99.90;;;;;;5056123;28;20198;-60
2023/04/24 02:18:08;;;;;;;2.70;1.90;;;9.70;99.90;;;;;;5059617;28;20309;-60
2023/04/24 02:20:35;;;;;;;6.20;2.60;;;9.70;99.90;;;;;;5060810;28;20191;-61
2023/04/24 02:23:01;;;;;;;2.23;1.50;;;9.70;99.90;;;;;;5066465;28;20182;-60
2023/04/24 02:25:26;;;;;;;2.73;1.70;;;9.70;99.90;;;;;;5064903;28;20464;-60
2023/04/24 02:27:52;;;;;;;2.10;1.50;;;9.70;99.90;;;;;;5061578;28;20590;-60
2023/04/24 02:30:18;;;;;;;3.73;1.70;;;9.70;99.90;;;;;;5060928;28;20183;-60
2023/04/24 02:32:43;;;;;;;1.40;1.30;;;9.70;99.90;;;;;;5065004;28;20913;-60
2023/04/24 02:35:09;;;;;;;2.90;1.30;;;9.60;99.90;;;;;;5066027;28;20750;-60
2023/04/24 02:37:35;;;;;;;1.40;1.30;;;9.60;99.90;;;;;;5062056;28;20171;-60
2023/04/24 02:40:00;;;;;;;1.40;1.30;;;9.60;99.90;;;;;;5060958;28;20261;-60
2023/04/24 02:42:26;;;;;;;1.50;1.40;;;9.60;99.90;;;;;;5057210;28;20186;-60
2023/04/24 02:44:51;;;;;;;2.10;1.67;;;9.60;99.90;;;;;;5062570;28;20210;-60
2023/04/24 02:47:17;;;;;;;1.63;1.37;;;9.60;99.90;;;;;;5065960;28;20178;-60
2023/04/24 02:49:43;;;;;;;1.50;1.40;;;9.60;99.90;;;;;;5063085;28;20182;-60
2023/04/24 02:52:08;;;;;;;2.00;1.30;;;9.60;99.90;;;;;;5038506;28;20182;-60
2023/04/24 02:54:34;;;;;;;2.17;1.67;;;9.60;99.90;;;;;;5067245;28;20228;-60
2023/04/24 02:57:00;;;;;;;1.63;1.53;;;9.50;99.90;;;;;;5061959;28;20178;-60
2023/04/24 02:59:28;;;;;;;1.67;1.40;;;9.50;99.90;;;;;;5063084;28;20202;-60
2023/04/24 03:01:54;;;;;;;2.83;1.53;;;9.50;99.90;;;;;;5063363;28;20433;-60
2023/04/24 03:04:20;;;;;;;2.60;1.60;;;9.50;99.90;;;;;;5069689;28;20425;-59
2023/04/24 03:06:46;;;;;;;1.70;1.40;;;9.50;99.90;;;;;;5062077;28;20183;-60
2023/04/24 03:09:11;;;;;;;3.20;1.70;;;9.50;99.90;;;;;;5068578;28;20234;-60
2023/04/24 03:11:37;;;;;;;3.60;1.60;;;9.50;99.90;;;;;;5063168;28;20198;-60
2023/04/24 03:14:02;;;;;;;1.60;1.50;;;9.50;99.90;;;;;;5049397;28;20187;-60
2023/04/24 03:16:28;;;;;;;2.83;1.50;;;9.50;99.90;;;;;;5062345;28;20646;-60
2023/04/24 03:18:54;;;;;;;1.60;1.50;;;9.50;99.90;;;;;;5066733;28;20186;-60
2023/04/24 03:21:20;;;;;;;3.47;1.70;;;9.50;99.90;;;;;;5062915;28;20224;-60
2023/04/24 03:23:45;;;;;;;3.00;1.73;;;9.50;99.90;;;;;;5046641;28;21106;-60
2023/04/24 03:26:11;;;;;;;2.37;1.63;;;9.50;99.90;;;;;;5062572;28;20482;-60
2023/04/24 03:28:36;;;;;;;2.20;1.60;;;9.50;99.90;;;;;;5068293;28;20760;-60
2023/04/24 03:31:03;;;;;;;4.10;1.97;;;9.40;99.90;;;;;;5065765;28;20178;-60
2023/04/24 03:33:29;;;;;;;1.67;1.43;;;9.50;99.90;;;;;;5065830;28;20185;-60
2023/04/24 03:35:55;;;;;;;2.23;1.60;;;9.50;99.90;;;;;;5046027;28;20469;-60
2023/04/24 03:38:20;;;;;;;2.10;1.20;;;9.50;99.90;;;;;;5065724;28;20473;-60
2023/04/24 03:40:46;;;;;;;4.27;1.67;;;9.50;99.90;;;;;;5065797;28;21079;-60
2023/04/24 03:43:12;;;;;;;1.60;1.50;;;9.50;99.90;;;;;;5063026;28;20180;-60
2023/04/24 03:45:37;;;;;;;1.30;1.20;;;9.50;99.90;;;;;;5065851;28;20232;-60
2023/04/24 03:48:03;;;;;;;4.80;2.50;;;9.50;99.90;;;;;;5065559;28;20206;-60
2023/04/24 03:50:29;;;;;;;6.10;1.90;;;9.40;99.90;;;;;;5064684;28;20178;-60
2023/04/24 03:52:54;;;;;;;1.47;1.37;;;9.40;99.90;;;;;;5061527;28;20175;-60
2023/04/24 03:55:20;;;;;;;5.77;1.50;;;9.40;99.90;;;;;;5058496;28;20267;-56
2023/04/24 03:57:45;;;;;;;1.70;1.60;;;9.30;99.90;;;;;;5060833;28;20175;-60
2023/04/24 04:00:12;;;;;;;1.53;1.43;;;9.40;99.90;;;;;;5063176;28;20174;-60
2023/04/24 04:02:37;;;;;;;2.20;1.70;;;9.30;99.90;;;;;;5050726;28;20185;-60
2023/04/24 04:05:03;;;;;;;2.67;1.80;;;9.30;99.90;;;;;;5052115;28;20468;-62
2023/04/24 04:07:29;;;;;;;1.63;1.53;;;9.20;99.90;;;;;;5058885;28;20186;-60
2023/04/24 04:09:55;;;;;;;3.33;1.67;;;9.20;99.90;;;;;;5036649;28;20441;-60
2023/04/24 04:12:21;;;;;;;1.73;1.20;;;9.20;99.90;;;;;;5048266;28;20490;-61
2023/04/24 04:14:46;;;;;;;2.07;1.67;;;9.10;99.90;;;;;;5057630;28;20315;-67
2023/04/24 04:17:12;;;;;;;1.67;1.13;;;9.10;99.90;;;;;;5055619;28;20171;-62
2023/04/24 04:19:37;;;;;;;3.33;2.70;;;9.10;99.90;;;;;;5032658;28;20175;-65
2023/04/24 04:22:03;;;;;;;1.60;1.50;;;9.10;99.90;;;;;;5057427;28;20167;-63
2023/04/24 04:24:29;;;;;;;2.20;1.30;;;9.10;99.90;;;;;;5043628;28;20202;-63
2023/04/24 04:26:57;;;;;;;1.13;1.13;;;9.10;99.90;;;;;;5051722;28;20180;-64
2023/04/24 04:29:23;;;;;;;5.63;1.40;;;9.00;99.90;;;;;;5055156;28;20166;-63
2023/04/24 04:31:49;;;;;;;1.47;1.37;;;9.00;99.90;;;;;;5055652;28;20480;-63
2023/04/24 04:34:15;;;;;;;1.20;1.17;;;9.00;99.90;;;;;;5041000;28;20194;-63
2023/04/24 04:36:41;;;;;;;1.87;1.30;;;9.00;99.90;;;;;;5053929;28;20475;-61
2023/04/24 04:39:07;;;;;;;1.53;1.30;;;9.00;99.90;;;;;;5056360;28;20182;-61
2023/04/24 04:41:35;;;;;;;2.60;1.13;;;9.00;99.90;;;;;;5055057;28;20535;-62
2023/04/24 04:44:01;;;;;;;7.03;1.27;;;9.00;99.90;;;;;;5055555;28;20417;-61
2023/04/24 04:46:27;;;;;;;2.17;1.20;;;9.00;99.90;;;;;;5053425;28;20468;-64
2023/04/24 04:48:56;;;;;;;1.23;1.13;;;9.00;99.90;;;;;;5062888;28;20824;-58
2023/04/24 04:51:22;;;;;;;1.57;1.47;;;9.00;99.90;;;;;;5055895;28;20193;-62
2023/04/24 04:53:47;;;;;;;1.30;1.20;;;9.00;99.90;;;;;;5062335;28;20816;-62
2023/04/24 04:56:13;;;;;;;1.50;1.40;;;9.00;99.90;;;;;;5064031;28;20221;-64
2023/04/24 04:58:38;;;;;;;1.17;1.10;;;9.00;99.90;;;;;;5064179;28;20197;-63
2023/04/24 05:01:04;;;;;;;1.30;1.20;;;9.00;99.90;;;;;;5039290;28;20611;-62
2023/04/24 05:03:30;;;;;;;2.60;1.60;;;9.00;99.90;;;;;;5059869;28;20178;-62
2023/04/24 05:05:55;;;;;;;1.30;1.20;;;8.90;99.90;;;;;;5066077;28;21147;-63
2023/04/24 05:08:21;;;;;;;3.73;1.30;;;8.90;99.90;;;;;;5067566;28;20170;-62
2023/04/24 05:10:46;;;;;;;3.53;1.63;;;8.90;99.90;;;;;;5060944;28;20274;-63
2023/04/24 05:13:12;;;;;;;1.10;1.10;;;9.00;99.90;;;;;;5061769;28;20185;-62
2023/04/24 05:15:38;;;;;;;5.47;1.80;;;8.90;99.90;;;;;;5053860;28;20334;-63
2023/04/24 05:18:04;;;;;;;1.27;1.17;;;8.90;99.90;;;;;;5061587;28;20174;-62
2023/04/24 05:20:29;;;;;;;2.63;1.33;;;8.90;99.90;;;;;;5060964;28;20193;-62
2023/04/24 05:22:55;;;;;;;1.40;1.30;;;8.90;99.90;;;;;;5063096;28;20174;-62
2023/04/24 05:25:21;;;;;;;1.47;1.37;;;8.90;99.90;;;;;;5058345;28;20194;-62
2023/04/24 05:27:46;;;;;;;1.10;1.10;;;8.90;99.90;;;;;;5058597;28;20178;-64
2023/04/24 05:30:12;;;;;;;1.37;1.27;;;8.90;99.90;;;;;;5049356;28;20593;-62
2023/04/24 05:32:38;;;;;;;1.67;1.40;;;8.90;99.90;;;;;;5059306;28;20224;-62
2023/04/24 05:35:04;;;;;;;1.20;1.10;;;8.90;99.90;;;;;;5058455;28;20847;-63
2023/04/24 05:37:29;;;;;;;1.13;1.00;;;8.90;99.90;;;;;;5062367;28;20182;-62
2023/04/24 05:39:55;;;;;;;2.30;1.20;;;8.90;99.90;;;;;;5042004;28;20433;-63
2023/04/24 05:42:20;;;;;;;2.40;1.30;;;8.90;99.90;;;;;;5054141;28;20175;-63
2023/04/24 05:44:46;;;;;;;1.80;1.30;;;8.90;99.90;;;;;;5056279;28;20212;-63
2023/04/24 05:47:12;;;;;;;1.43;1.33;;;9.00;99.90;;;;;;5039512;28;20192;-63
2023/04/24 05:49:37;;;;;;;1.40;1.30;;;9.00;99.90;;;;;;5053009;28;20605;-62
2023/04/24 05:52:05;;;;;;;2.73;1.40;;;9.00;99.90;;;;;;5046511;28;20271;-64
2023/04/24 05:54:30;;;;;;;1.33;1.23;;;9.00;99.90;;;;;;5053772;28;20225;-63
2023/04/24 05:56:56;;;;;;;1.43;1.33;;;9.00;99.90;;;;;;5064666;28;20433;-63
2023/04/24 05:59:22;;;;;;;1.33;1.23;;;9.10;99.90;;;;;;5062204;28;20174;-63
2023/04/24 06:01:47;;;;;;;1.20;1.10;;;9.10;99.90;;;;;;5060437;28;20181;-63
2023/04/24 06:04:13;;;;;;;1.53;1.27;;;9.20;99.90;;;;;;5058419;28;20236;-62
2023/04/24 06:06:39;;;;;;;2.50;1.17;;;9.30;99.90;;;;;;5062144;28;20187;-63
2023/04/24 06:09:05;;;;;;;1.20;1.10;;;9.40;99.90;;;;;;5061506;28;20432;-63
2023/04/24 06:11:31;;;;;;;1.97;1.37;;;9.50;99.90;;;;;;5051952;28;20443;-63
2023/04/24 06:13:57;;;;;;;1.40;1.30;;;9.60;99.90;;;;;;5056698;28;20198;-62
2023/04/24 06:16:22;;;;;;;1.60;1.50;;;9.70;99.90;;;;;;5056324;28;20460;-63
2023/04/24 06:18:48;;;;;;;1.40;1.30;;;9.90;99.90;;;;;;5058970;28;20178;-61
2023/04/24 06:21:15;;;;;;;1.50;1.40;;;9.90;99.90;;;;;;5058526;28;20206;-62
2023/04/24 06:23:40;;;;;;;1.83;1.60;;;9.90;99.90;;;;;;5055403;28;20175;-61
2023/04/24 06:26:06;;;;;;;2.30;1.60;;;10.00;99.90;;;;;;5058491;28;20483;-60
2023/04/24 06:28:31;;;;;;;3.90;1.60;;;10.10;99.90;;;;;;5056627;28;20194;-59
2023/04/24 06:30:57;;;;;;;1.50;1.40;;;10.20;99.90;;;;;;5057261;28;20301;-61
2023/04/24 06:33:23;;;;;;;1.70;1.60;;;10.30;99.90;;;;;;5055483;28;20193;-61
2023/04/24 06:35:48;;;;;;;2.17;1.77;;;10.40;99.90;;;;;;5063387;28;20213;-59
2023/04/24 06:38:15;;;;;;;3.07;1.70;;;10.40;99.90;;;;;;5059827;28;20182;-59
2023/04/24 06:40:41;;;;;;;1.77;1.67;;;10.50;99.90;;;;;;5058746;28;20183;-61
2023/04/24 06:43:07;;;;;;;2.23;2.03;;;10.60;99.90;;;;;;5057743;28;20456;-59
2023/04/24 06:45:32;;;;;;;2.67;1.83;;;10.70;95.90;;;;;;5059345;28;20218;-59
2023/04/24 06:47:58;;;;;;;1.83;1.70;;;10.70;96.00;;;;;;5058631;28;20178;-59
2023/04/24 06:50:24;;;;;;;2.87;1.90;;;10.70;83.10;;;;;;5057861;28;22331;-60
2023/04/24 06:52:50;;;;;;;1.63;1.53;;;10.70;79.30;;;;;;5047732;28;20640;-62
2023/04/24 06:55:16;;;;;;;2.13;1.53;;;10.80;85.10;;;;;;5052066;28;20465;-59
2023/04/24 06:57:42;;;;;;;1.83;1.70;;;10.90;79.70;;;;;;5061282;28;20193;-59
2023/04/24 07:00:09;;;;;;;2.20;2.07;;;10.90;75.90;;;;;;5062823;28;20424;-60
2023/04/24 07:02:35;;;;;;;2.30;1.93;;;10.90;72.80;;;;;;5058252;28;20440;-59
2023/04/24 07:05:01;;;;;;;1.80;1.70;;;10.80;75.80;;;;;;5054230;28;20456;-59
2023/04/24 07:07:27;;;;;;;1.93;1.70;;;10.80;75.70;;;;;;5065070;28;20186;-59
2023/04/24 07:09:53;;;;;;;1.87;1.77;;;10.80;75.10;;;;;;5064861;28;20472;-59
2023/04/24 07:12:21;;;;;;;6.50;2.20;;;10.80;70.10;;;;;;5057520;28;20493;-59
2023/04/24 07:14:47;;;;;;;1.77;1.63;;;10.90;69.20;;;;;;5061874;28;20468;-60
2023/04/24 07:17:13;;;;;;;2.37;1.90;;;10.90;64.00;;;;;;5066019;28;20569;-61
2023/04/24 07:19:38;;;;;;;4.70;2.10;;;11.00;63.40;;;;;;5069454;28;20675;-59
2023/04/24 07:22:04;;;;;;;1.97;1.77;;;11.00;61.30;;;;;;5057198;28;20818;-58
2023/04/24 07:24:32;;;;;;;2.90;1.90;;;11.00;62.80;;;;;;5053128;28;20183;-59
2023/04/24 07:26:57;;;;;;;2.60;1.80;;;11.00;62.40;;;;;;5064810;28;20872;-59
2023/04/24 07:29:23;;;;;;;3.50;2.17;;;11.10;61.00;;;;;;5063087;28;20459;-60
2023/04/24 07:31:49;;;;;;;2.33;2.13;;;11.00;59.30;;;;;;5066581;28;20687;-59
2023/04/24 07:34:14;;;;;;;2.30;1.90;;;11.00;60.00;;;;;;5066022;28;20632;-59
2023/04/24 07:36:41;;;;;;;3.43;1.90;;;10.90;59.10;;;;;;5066952;28;20182;-59
2023/04/24 07:39:08;;;;;;;2.20;1.70;;;10.80;59.70;;;;;;5060483;28;20663;-59
2023/04/24 07:41:33;;;;;;;4.53;1.80;;;10.80;60.20;;;;;;5061001;28;21137;-59
2023/04/24 07:43:59;;;;;;;1.80;1.70;;;10.70;61.10;;;;;;5065154;28;20441;-62
2023/04/24 07:46:24;;;;;;;7.73;2.07;;;10.60;60.20;;;;;;5066540;28;20214;-61
2023/04/24 07:48:50;;;;;;;4.20;1.70;;;10.60;61.70;;;;;;5062333;28;20185;-59
2023/04/24 07:51:16;;;;;;;1.80;1.70;;;10.50;62.10;;;;;;5061858;28;20189;-60
2023/04/24 07:53:43;;;;;;;1.87;1.73;;;10.50;62.20;;;;;;5045905;28;20236;-59
2023/04/24 07:56:09;;;;;;;7.33;2.00;;;10.40;62.60;;;;;;5061404;28;20202;-60
2023/04/24 07:58:35;;;;;;;2.37;1.77;;;10.30;61.50;;;;;;5056669;28;20441;-56
2023/04/24 08:01:00;;;;;;;2.03;1.70;;;10.30;62.20;;;;;;5059017;28;20178;-56
2023/04/24 08:03:26;;;;;;;2.07;1.83;;;10.20;61.60;;;;;;5048947;28;20233;-59
2023/04/24 08:05:52;;;;;;;2.20;2.00;;;10.20;62.60;;;;;;5057635;28;20211;-59
2023/04/24 08:08:17;;;;;;;1.80;1.70;;;10.30;62.80;;;;;;5057927;28;21158;-61
2023/04/24 08:10:43;;;;;;;2.13;1.90;;;10.40;62.20;;;;;;5050715;28;20178;-57
2023/04/24 08:13:11;;;;;;;2.73;1.87;;;10.50;63.10;;;;;;5060739;28;20651;-58
2023/04/24 08:15:36;;;;;;;2.03;1.90;;;10.60;61.40;;;;;;5059461;28;20198;-59
2023/04/24 08:18:02;;;;;;;2.70;1.80;;;10.70;60.60;;;;;;5058559;28;20436;-62
2023/04/24 08:20:28;;;;;;;2.00;1.90;;;10.70;60.70;;;;;;5056071;28;20189;-57
2023/04/24 08:22:54;;;;;;;1.80;1.70;;;10.80;60.80;;;;;;5054479;28;20228;-57
2023/04/24 08:25:20;;;;;;;2.40;1.70;;;10.90;60.90;;;;;;5063090;28;20741;-55
2023/04/24 08:27:45;;;;;;;3.23;1.90;;;10.90;59.50;;;;;;5057677;28;20433;-60
2023/04/24 08:30:11;;;;;;;2.37;2.00;;;10.80;59.80;;;;;;5058921;28;20213;-58
2023/04/24 08:32:37;;;;;;;2.13;1.83;;;10.80;60.00;;;;;;5060501;28;20274;-56
2023/04/24 08:35:03;;;;;;;2.37;1.80;;;10.90;58.60;;;;;;5057748;28;20213;-57
2023/04/24 08:37:29;;;;;;;3.43;2.10;;;10.80;55.90;;;;;;5039517;28;20187;-58
2023/04/24 08:39:54;;;;;;;1.80;1.70;;;10.70;55.90;;;;;;5056734;28;20424;-59
2023/04/24 08:42:20;;;;;;;3.30;2.03;;;10.60;56.60;;;;;;5061345;28;20269;-60
2023/04/24 08:44:48;;;;;;;2.10;1.90;;;10.60;54.60;;;;;;5058125;28;20242;-59
2023/04/24 08:47:15;;;;;;;2.27;1.77;;;10.50;53.10;;;;;;5060762;28;20436;-60
2023/04/24 08:49:42;;;;;;;2.00;1.90;;;10.50;52.70;;;;;;5059190;28;20476;-59
2023/04/24 08:52:08;;;;;;;3.60;1.97;;;10.40;52.80;;;;;;5057062;28;20437;-59
2023/04/24 08:54:37;;;;;;;1.70;1.60;;;10.30;52.80;;;;;;5057722;28;20472;-59
2023/04/24 08:57:03;;;;;;;3.17;2.20;;;10.40;53.60;;;;;;5060367;28;20187;-59
2023/04/24 08:59:30;;;;;;;2.40;2.20;;;10.40;53.60;;;;;;5060059;28;20443;-57
2023/04/24 09:01:57;;;;;;;4.03;2.00;;;10.50;53.60;;;;;;5057784;28;20191;-53
2023/04/24 09:04:24;;;;;;;2.00;1.90;;;10.60;54.90;;;;;;5056091;28;20432;-56
2023/04/24 09:06:51;;;;;;;4.20;1.80;;;10.90;55.20;;;;;;5059599;28;20431;-54
2023/04/24 09:09:18;;;;;;;5.10;1.90;;;11.00;53.90;;;;;;5058430;28;20455;-62
2023/04/24 09:11:44;;;;;;;3.23;2.00;;;11.20;52.20;;;;;;5041928;28;20455;-56
2023/04/24 09:14:10;;;;;;;2.63;2.40;;;11.40;51.20;;;;;;5064151;28;20453;-54
2023/04/24 09:16:36;;;;;;;2.70;2.03;;;11.50;50.10;;;;;;5060397;28;20455;-54
2023/04/24 09:19:02;;;;;;;2.77;1.90;;;11.60;50.20;;;;;;5060637;28;20428;-60
2023/04/24 09:21:35;;;;;;;5.37;2.00;;;11.90;50.10;;;;;;5062114;28;20445;-59
2023/04/24 09:24:05;;;;;;;2.90;1.80;;;12.00;48.70;;;;;;5060964;28;20435;-59
2023/04/24 09:26:34;;;;;;;1.97;1.87;;;12.10;47.70;;;;;;5059476;28;20506;-59
2023/04/24 09:29:00;;;;;;;2.43;2.03;;;12.00;47.20;;;;;;5040603;28;22161;-60
2023/04/24 09:31:28;;;;;;;2.20;2.00;;;11.80;46.20;;;;;;5064302;28;20817;-60
2023/04/24 09:33:55;;;;;;;3.33;2.23;;;11.70;47.40;;;;;;5062299;28;21005;-61
2023/04/24 09:36:28;;;;;;;3.40;2.50;;;11.60;48.20;;;;;;5063100;28;20448;-60
2023/04/24 09:38:58;;;;;;;2.70;2.00;;;11.80;48.60;;;;;;5057529;28;20441;-58
2023/04/24 09:41:24;;;;;;;4.60;2.00;;;11.80;48.60;;;;;;5063493;28;20441;-59
2023/04/24 09:43:49;;;;;;;4.40;2.10;;;11.80;47.90;;;;;;5060276;28;20452;-60
2023/04/24 09:46:18;;;;;;;3.60;2.30;;;11.70;48.20;;;;;;5055982;28;20341;-58
2023/04/24 09:48:44;;;;;;;4.73;2.10;;;11.70;48.80;;;;;;5062469;28;20269;-60
2023/04/24 09:51:12;;;;;;;4.20;2.30;;;11.60;48.30;;;;;;5055501;28;20583;-60
2023/04/24 09:53:41;;;;;;;2.90;2.60;;;11.40;48.10;;;;;;5054355;28;20236;-59
2023/04/24 09:56:12;;;;;;;4.33;2.20;;;11.20;48.90;;;;;;5056333;28;20852;-59
2023/04/24 09:58:38;;;;;;;2.93;2.73;;;11.10;49.30;;;;;;5062925;28;20937;-59
2023/04/24 10:01:04;;;;;;;2.67;2.30;;;11.00;50.20;;;;;;5056276;28;20808;-59
2023/04/24 10:03:31;;;;;;;3.10;2.20;;;10.90;50.80;;;;;;5057664;28;20512;-60
2023/04/24 10:06:00;;;;;;;2.60;2.00;;;10.80;50.50;;;;;;5057253;28;20507;-59
2023/04/24 10:08:26;;;;;;;3.23;2.03;;;10.80;51.40;;;;;;5058040;28;20487;-60
2023/04/24 10:10:52;;;;;;;2.43;2.23;;;10.90;51.80;;;;;;5059840;28;20797;-59
2023/04/24 10:13:18;;;;;;;2.90;2.07;;;11.00;51.70;;;;;;5056688;28;20441;-58
2023/04/24 10:15:44;;;;;;;3.13;1.97;;;11.00;51.10;;;;;;5056996;28;20202;-60
2023/04/24 10:18:11;;;;;;;2.00;1.80;;;11.00;51.40;;;;;;5063008;28;20181;-60
2023/04/24 10:20:38;;;;;;;2.57;2.37;;;10.90;51.30;;;;;;5049092;28;20435;-65
2023/04/24 10:23:05;;;;;;;5.07;2.23;;;10.90;51.80;;;;;;5058705;28;20453;-62
2023/04/24 10:25:32;;;;;;;2.30;2.10;;;10.80;51.50;;;;;;5058331;28;20448;-59
2023/04/24 10:27:59;;;;;;;3.80;2.20;;;10.70;51.60;;;;;;5053900;28;20858;-60
2023/04/24 10:30:36;;;;;;;2.40;2.20;;;10.60;51.90;;;;;;5055633;28;20443;-59
2023/04/24 10:33:07;;;;;;;5.07;2.13;;;10.60;52.10;;;;;;5055045;28;20519;-60
2023/04/24 10:35:37;;;;;;;2.70;2.03;;;10.80;52.00;;;;;;5055571;28;20480;-60
2023/04/24 10:38:07;;;;;;;2.50;2.30;;;11.00;52.10;;;;;;5055235;28;20430;-60
2023/04/24 10:40:35;;;;;;;10.90;2.60;;;11.20;52.20;;;;;;5052415;28;20896;-61
2023/04/24 10:43:07;;;;;;;7.20;3.00;;;11.40;51.10;;;;;;5061625;28;20431;-61
2023/04/24 10:45:33;;;;;;;3.10;2.10;;;11.40;50.70;;;;;;5057630;28;20496;-58
2023/04/24 10:48:02;;;;;;;6.03;2.63;;;11.40;50.90;;;;;;5058608;28;20467;-57
2023/04/24 10:50:41;;;;;;;2.90;2.30;;;11.50;50.10;;;;;;5060516;28;20538;-55
2023/04/24 10:53:12;;;;;;;3.30;2.40;;;11.50;50.60;;;;;;5061988;28;20969;-56
2023/04/24 10:55:46;;;;;;;6.83;2.47;;;11.50;49.60;;;;;;5058095;28;20967;-56
2023/04/24 10:58:12;;;;;;;4.20;2.70;;;11.50;49.80;;;;;;5055981;28;20428;-57
2023/04/24 11:00:39;;;;;;;6.07;2.63;;;11.70;50.60;;;;;;5053594;28;20431;-58
2023/04/24 11:03:25;;;;;;;5.90;2.00;;;12.00;49.60;;;;;;5058982;28;20174;-57
2023/04/24 11:05:51;;;;;;;3.30;1.80;;;12.30;49.50;;;;;;5058115;28;20460;-61
2023/04/24 11:08:36;;;;;;;2.67;2.13;;;12.60;48.20;;;;;;5058025;28;20933;-58
2023/04/24 11:11:10;;;;;;;3.40;2.13;;;12.80;47.90;;;;;;5061419;28;20535;-60
2023/04/24 11:13:54;;;;;;;6.63;2.87;;;12.80;47.70;;;;;;5064815;28;20437;-61
2023/04/24 11:16:32;;;;;;;3.40;1.90;;;12.90;48.80;;;;;;5064222;28;20544;-61
2023/04/24 11:19:03;;;;;;;4.63;2.40;;;13.20;48.00;;;;;;5055287;28;22480;-60
2023/04/24 11:21:53;;;;;;;3.80;2.20;;;13.30;47.40;;;;;;5049462;28;20424;-59
2023/04/24 11:24:39;;;;;;;2.20;2.00;;;13.40;45.20;;;;;;5060091;28;20437;-61
2023/04/24 11:27:04;;;;;;;5.97;2.60;;;13.30;45.20;;;;;;5060719;28;20519;-60
2023/04/24 11:29:44;;;;;;;3.77;1.90;;;13.30;45.00;;;;;;5059516;28;20906;-61
2023/04/24 11:32:18;;;;;;;3.87;2.30;;;13.30;45.00;;;;;;5062406;28;20177;-60
2023/04/24 11:34:47;;;;;;;3.43;1.87;;;13.30;45.30;;;;;;5047021;28;20502;-62
2023/04/24 11:37:13;;;;;;;1.93;1.73;;;13.30;45.50;;;;;;5039989;28;20463;-61
2023/04/24 11:39:38;;;;;;;2.60;1.90;;;13.20;44.70;;;;;;5057022;28;20460;-60
2023/04/24 11:42:06;;;;;;;5.00;2.07;;;13.30;45.90;;;;;;5044185;28;20867;-60
2023/04/24 11:44:34;;;;;;;3.50;1.70;;;13.50;45.30;;;;;;5063415;28;20277;-60
2023/04/24 11:47:00;;;;;;;2.80;2.00;;;13.70;44.70;;;;;;5058861;28;20916;-60
2023/04/24 11:49:25;;;;;;;2.00;1.90;;;13.80;43.80;;;;;;5059578;28;20456;-61
2023/04/24 11:51:55;;;;;;;1.90;1.70;;;13.70;44.00;;;;;;5062182;28;20186;-60
2023/04/24 11:54:21;;;;;;;2.80;1.90;;;13.60;44.60;;;;;;5060429;28;21001;-60
2023/04/24 11:56:47;;;;;;;1.73;1.60;;;13.40;44.10;;;;;;5057216;28;20433;-61
2023/04/24 11:59:13;;;;;;;2.53;2.13;;;13.20;44.70;;;;;;5044087;28;20307;-61
2023/04/24 12:01:46;;;;;;;3.00;1.70;;;13.20;43.50;;;;;;5060247;28;21897;-60
2023/04/24 12:04:13;;;;;;;5.73;1.73;;;13.10;43.20;;;;;;5041503;28;20433;-61
2023/04/24 12:06:38;;;;;;;3.53;1.97;;;12.90;44.10;;;;;;5055031;28;20424;-60
2023/04/24 12:09:04;;;;;;;2.90;1.93;;;12.80;43.30;;;;;;5056519;28;20437;-60
2023/04/24 12:11:30;;;;;;;6.73;1.90;;;12.80;43.20;;;;;;5060016;28;20236;-61
2023/04/24 12:13:56;;;;;;;3.93;1.90;;;12.60;43.40;;;;;;5055600;28;20186;-61
2023/04/24 12:16:21;;;;;;;2.53;1.90;;;12.50;44.70;;;;;;5056890;28;20270;-60
2023/04/24 12:18:47;;;;;;;1.80;1.70;;;12.40;44.50;;;;;;5055549;28;20258;-60
2023/04/24 12:21:24;;;;;;;1.77;1.40;;;12.30;45.20;;;;;;5058992;28;20249;-61
2023/04/24 12:23:50;;;;;;;2.83;1.80;;;12.20;44.80;;;;;;5059638;28;20665;-60
2023/04/24 12:26:18;;;;;;;1.67;1.57;;;12.20;45.20;;;;;;5057343;28;20450;-60
2023/04/24 12:28:47;;;;;;;1.70;1.60;;;12.30;46.40;;;;;;5039749;28;20666;-60
2023/04/24 12:31:13;;;;;;;2.20;1.60;;;12.70;46.90;;;;;;5058000;28;20448;-61
2023/04/24 12:33:39;;;;;;;6.07;2.00;;;12.90;45.70;;;;;;5053498;28;20977;-61
2023/04/24 12:36:06;;;;;;;3.00;1.70;;;12.90;44.40;;;;;;5057297;28;20648;-61
2023/04/24 12:38:39;;;;;;;3.93;2.00;;;12.90;44.40;;;;;;5055466;28;20166;-60
2023/04/24 12:41:15;;;;;;;5.50;1.90;;;12.70;44.40;;;;;;5057381;28;20936;-61
2023/04/24 12:43:51;;;;;;;2.00;1.73;;;12.50;45.00;;;;;;5056805;28;20839;-61
2023/04/24 12:46:17;;;;;;;7.67;1.90;;;12.80;46.00;;;;;;5035943;28;20461;-60
2023/04/24 12:48:42;;;;;;;2.30;1.77;;;13.20;45.10;;;;;;5050959;28;21154;-60